sensor_id;sensor_type;location;lat;lon;timestamp;P1;durP1;ratioP1;P2;durP2;ratioP2
65871;SDS011;52653;50.080;21.992;2024-02-21T00:01:00;16.50;;;11.20;;
65871;SDS011;52653;50.080;21.992;2024-02-21T00:03:46;15.10;;;10.40;;
65871;SDS011;52653;50.080;21.992;2024-02-21T00:06:18;16.90;;;11.50;;
65871;SDS011;52653;50.080;21.992;2024-02-21T00:08:51;15.30;;;10.70;;
65871;SDS011;52653;50.080;21.992;2024-02-21T00:11:23;15.10;;;10.10;;
65871;SDS011;52653;50.080;21.992;2024-02-21T00:13:56;15.90;;;10.50;;
65871;SDS011;52653;50.080;21.992;2024-02-21T00:16:29;14.20;;;10.30;;
65871;SDS011;52653;50.080;21.992;2024-02-21T00:19:01;15.00;;;9.50;;
65871;SDS011;52653;50.080;21.992;2024-02-21T00:21:34;15.60;;;10.40;;
65871;SDS011;52653;50.080;21.992;2024-02-21T00:24:07;15.00;;;9.60;;
65871;SDS011;52653;50.080;21.992;2024-02-21T00:26:40;14.70;;;9.90;;
65871;SDS011;52653;50.080;21.992;2024-02-21T00:29:12;14.10;;;9.90;;
65871;SDS011;52653;50.080;21.992;2024-02-21T00:31:45;14.60;;;9.80;;
65871;SDS011;52653;50.080;21.992;2024-02-21T00:34:19;14.00;;;9.20;;
65871;SDS011;52653;50.080;21.992;2024-02-21T00:36:51;13.50;;;9.60;;
65871;SDS011;52653;50.080;21.992;2024-02-21T00:39:24;13.20;;;9.40;;
65871;SDS011;52653;50.080;21.992;2024-02-21T00:41:59;15.20;;;9.70;;
65871;SDS011;52653;50.080;21.992;2024-02-21T00:44:32;13.40;;;9.70;;
65871;SDS011;52653;50.080;21.992;2024-02-21T00:47:05;12.40;;;9.30;;
65871;SDS011;52653;50.080;21.992;2024-02-21T00:49:38;15.40;;;10.10;;
65871;SDS011;52653;50.080;21.992;2024-02-21T00:52:10;14.40;;;10.00;;
65871;SDS011;52653;50.080;21.992;2024-02-21T00:54:43;14.50;;;9.80;;
65871;SDS011;52653;50.080;21.992;2024-02-21T00:57:22;15.60;;;10.10;;
65871;SDS011;52653;50.080;21.992;2024-02-21T00:59:55;12.90;;;9.60;;
65871;SDS011;52653;50.080;21.992;2024-02-21T01:02:28;14.70;;;10.30;;
65871;SDS011;52653;50.080;21.992;2024-02-21T01:05:02;14.20;;;10.00;;
65871;SDS011;52653;50.080;21.992;2024-02-21T01:07:35;14.60;;;10.60;;
65871;SDS011;52653;50.080;21.992;2024-02-21T01:10:08;14.50;;;9.50;;
65871;SDS011;52653;50.080;21.992;2024-02-21T01:12:41;15.70;;;10.90;;
65871;SDS011;52653;50.080;21.992;2024-02-21T01:15:14;16.00;;;10.80;;
65871;SDS011;52653;50.080;21.992;2024-02-21T01:17:47;15.40;;;10.90;;
65871;SDS011;52653;50.080;21.992;2024-02-21T01:20:24;17.60;;;10.20;;
65871;SDS011;52653;50.080;21.992;2024-02-21T01:22:57;14.90;;;10.00;;
65871;SDS011;52653;50.080;21.992;2024-02-21T01:25:30;14.00;;;10.30;;
65871;SDS011;52653;50.080;21.992;2024-02-21T01:28:03;14.70;;;10.50;;
65871;SDS011;52653;50.080;21.992;2024-02-21T01:30:36;18.30;;;11.50;;
65871;SDS011;52653;50.080;21.992;2024-02-21T01:33:08;13.50;;;10.00;;
65871;SDS011;52653;50.080;21.992;2024-02-21T01:35:41;15.80;;;11.20;;
65871;SDS011;52653;50.080;21.992;2024-02-21T01:38:14;15.90;;;10.60;;
65871;SDS011;52653;50.080;21.992;2024-02-21T01:40:47;14.40;;;10.10;;
65871;SDS011;52653;50.080;21.992;2024-02-21T01:43:31;16.20;;;10.00;;
65871;SDS011;52653;50.080;21.992;2024-02-21T01:46:03;15.70;;;11.00;;
65871;SDS011;52653;50.080;21.992;2024-02-21T01:48:37;15.60;;;10.40;;
65871;SDS011;52653;50.080;21.992;2024-02-21T01:51:10;14.40;;;10.90;;
65871;SDS011;52653;50.080;21.992;2024-02-21T01:53:43;16.30;;;11.00;;
65871;SDS011;52653;50.080;21.992;2024-02-21T01:56:16;13.10;;;10.00;;
65871;SDS011;52653;50.080;21.992;2024-02-21T01:58:50;14.80;;;9.80;;
65871;SDS011;52653;50.080;21.992;2024-02-21T02:01:23;14.00;;;9.50;;
65871;SDS011;52653;50.080;21.992;2024-02-21T02:03:56;14.40;;;10.10;;
65871;SDS011;52653;50.080;21.992;2024-02-21T02:06:29;14.60;;;10.10;;
65871;SDS011;52653;50.080;21.992;2024-02-21T02:09:03;13.00;;;9.80;;
65871;SDS011;52653;50.080;21.992;2024-02-21T02:11:35;14.60;;;9.50;;
65871;SDS011;52653;50.080;21.992;2024-02-21T02:14:08;12.90;;;9.50;;
65871;SDS011;52653;50.080;21.992;2024-02-21T02:16:40;12.40;;;8.80;;
65871;SDS011;52653;50.080;21.992;2024-02-21T02:19:16;15.00;;;9.80;;
65871;SDS011;52653;50.080;21.992;2024-02-21T02:21:51;13.90;;;9.00;;
65871;SDS011;52653;50.080;21.992;2024-02-21T02:24:30;12.90;;;8.70;;
65871;SDS011;52653;50.080;21.992;2024-02-21T02:27:03;13.20;;;8.90;;
65871;SDS011;52653;50.080;21.992;2024-02-21T02:29:35;13.80;;;9.20;;
65871;SDS011;52653;50.080;21.992;2024-02-21T02:32:08;13.60;;;8.50;;
65871;SDS011;52653;50.080;21.992;2024-02-21T02:34:40;12.30;;;8.30;;
65871;SDS011;52653;50.080;21.992;2024-02-21T02:37:13;13.50;;;8.40;;
65871;SDS011;52653;50.080;21.992;2024-02-21T02:39:45;13.70;;;7.80;;
65871;SDS011;52653;50.080;21.992;2024-02-21T02:42:18;11.80;;;7.80;;
65871;SDS011;52653;50.080;21.992;2024-02-21T02:44:51;13.90;;;8.20;;
65871;SDS011;52653;50.080;21.992;2024-02-21T02:47:23;13.40;;;7.60;;
65871;SDS011;52653;50.080;21.992;2024-02-21T02:49:56;10.90;;;6.80;;
65871;SDS011;52653;50.080;21.992;2024-02-21T02:52:29;11.10;;;6.80;;
65871;SDS011;52653;50.080;21.992;2024-02-21T02:55:02;12.10;;;7.90;;
65871;SDS011;52653;50.080;21.992;2024-02-21T02:57:37;13.00;;;7.40;;
65871;SDS011;52653;50.080;21.992;2024-02-21T03:00:14;12.70;;;7.50;;
65871;SDS011;52653;50.080;21.992;2024-02-21T03:02:48;13.50;;;7.90;;
65871;SDS011;52653;50.080;21.992;2024-02-21T03:05:21;11.20;;;7.10;;
65871;SDS011;52653;50.080;21.992;2024-02-21T03:07:55;13.70;;;7.50;;
65871;SDS011;52653;50.080;21.992;2024-02-21T03:10:28;11.80;;;7.40;;
65871;SDS011;52653;50.080;21.992;2024-02-21T03:13:02;11.10;;;6.90;;
65871;SDS011;52653;50.080;21.992;2024-02-21T03:15:35;10.10;;;6.80;;
65871;SDS011;52653;50.080;21.992;2024-02-21T03:18:07;12.60;;;7.40;;
65871;SDS011;52653;50.080;21.992;2024-02-21T03:20:40;11.30;;;6.80;;
65871;SDS011;52653;50.080;21.992;2024-02-21T03:23:13;11.00;;;6.90;;
65871;SDS011;52653;50.080;21.992;2024-02-21T03:25:45;11.80;;;6.90;;
65871;SDS011;52653;50.080;21.992;2024-02-21T03:28:18;11.50;;;6.00;;
65871;SDS011;52653;50.080;21.992;2024-02-21T03:30:51;16.20;;;7.10;;
65871;SDS011;52653;50.080;21.992;2024-02-21T03:33:23;12.90;;;7.10;;
65871;SDS011;52653;50.080;21.992;2024-02-21T03:35:56;11.60;;;6.60;;
65871;SDS011;52653;50.080;21.992;2024-02-21T03:38:29;12.10;;;6.90;;
65871;SDS011;52653;50.080;21.992;2024-02-21T03:41:01;10.50;;;6.30;;
65871;SDS011;52653;50.080;21.992;2024-02-21T03:43:34;11.00;;;6.60;;
65871;SDS011;52653;50.080;21.992;2024-02-21T03:46:07;13.80;;;6.70;;
65871;SDS011;52653;50.080;21.992;2024-02-21T03:48:40;12.80;;;7.50;;
65871;SDS011;52653;50.080;21.992;2024-02-21T03:51:12;13.60;;;7.10;;
65871;SDS011;52653;50.080;21.992;2024-02-21T03:53:44;12.20;;;6.50;;
65871;SDS011;52653;50.080;21.992;2024-02-21T03:56:17;10.10;;;6.30;;
65871;SDS011;52653;50.080;21.992;2024-02-21T03:58:49;12.40;;;6.20;;
65871;SDS011;52653;50.080;21.992;2024-02-21T04:01:21;10.40;;;6.20;;
65871;SDS011;52653;50.080;21.992;2024-02-21T04:03:54;14.60;;;7.10;;
65871;SDS011;52653;50.080;21.992;2024-02-21T04:06:26;14.30;;;6.90;;
65871;SDS011;52653;50.080;21.992;2024-02-21T04:08:59;13.50;;;7.60;;
65871;SDS011;52653;50.080;21.992;2024-02-21T04:11:31;13.40;;;6.60;;
65871;SDS011;52653;50.080;21.992;2024-02-21T04:14:03;11.00;;;6.60;;
65871;SDS011;52653;50.080;21.992;2024-02-21T04:16:36;12.50;;;6.60;;
65871;SDS011;52653;50.080;21.992;2024-02-21T04:19:09;12.90;;;7.40;;
65871;SDS011;52653;50.080;21.992;2024-02-21T04:21:41;15.90;;;8.40;;
65871;SDS011;52653;50.080;21.992;2024-02-21T04:24:14;14.70;;;7.60;;
65871;SDS011;52653;50.080;21.992;2024-02-21T04:26:46;14.00;;;8.20;;
65871;SDS011;52653;50.080;21.992;2024-02-21T04:29:18;14.10;;;9.00;;
65871;SDS011;52653;50.080;21.992;2024-02-21T04:31:51;13.40;;;8.10;;
65871;SDS011;52653;50.080;21.992;2024-02-21T04:34:23;16.60;;;9.50;;
65871;SDS011;52653;50.080;21.992;2024-02-21T04:36:56;15.00;;;9.00;;
65871;SDS011;52653;50.080;21.992;2024-02-21T04:39:28;18.20;;;9.30;;
65871;SDS011;52653;50.080;21.992;2024-02-21T04:42:00;18.20;;;10.00;;
65871;SDS011;52653;50.080;21.992;2024-02-21T04:44:32;17.80;;;9.90;;
65871;SDS011;52653;50.080;21.992;2024-02-21T04:47:05;19.50;;;9.90;;
65871;SDS011;52653;50.080;21.992;2024-02-21T04:49:37;16.80;;;8.80;;
65871;SDS011;52653;50.080;21.992;2024-02-21T04:52:13;15.60;;;9.40;;
65871;SDS011;52653;50.080;21.992;2024-02-21T04:54:45;19.70;;;8.90;;
65871;SDS011;52653;50.080;21.992;2024-02-21T04:57:18;18.50;;;9.40;;
65871;SDS011;52653;50.080;21.992;2024-02-21T04:59:50;18.80;;;10.10;;
65871;SDS011;52653;50.080;21.992;2024-02-21T05:02:22;23.40;;;11.90;;
65871;SDS011;52653;50.080;21.992;2024-02-21T05:04:55;20.90;;;11.20;;
65871;SDS011;52653;50.080;21.992;2024-02-21T05:07:28;22.10;;;11.00;;
65871;SDS011;52653;50.080;21.992;2024-02-21T05:10:00;15.10;;;8.70;;
65871;SDS011;52653;50.080;21.992;2024-02-21T05:12:33;16.70;;;8.20;;
65871;SDS011;52653;50.080;21.992;2024-02-21T05:15:06;14.20;;;7.30;;
65871;SDS011;52653;50.080;21.992;2024-02-21T05:17:39;11.70;;;7.20;;
65871;SDS011;52653;50.080;21.992;2024-02-21T05:20:12;14.30;;;7.00;;
65871;SDS011;52653;50.080;21.992;2024-02-21T05:22:45;12.70;;;7.10;;
65871;SDS011;52653;50.080;21.992;2024-02-21T05:25:17;13.50;;;6.90;;
65871;SDS011;52653;50.080;21.992;2024-02-21T05:27:49;12.20;;;6.90;;
65871;SDS011;52653;50.080;21.992;2024-02-21T05:30:25;14.20;;;6.50;;
65871;SDS011;52653;50.080;21.992;2024-02-21T05:32:57;11.70;;;6.80;;
65871;SDS011;52653;50.080;21.992;2024-02-21T05:35:29;12.70;;;6.50;;
65871;SDS011;52653;50.080;21.992;2024-02-21T05:38:02;18.20;;;9.30;;
65871;SDS011;52653;50.080;21.992;2024-02-21T05:40:41;17.10;;;7.50;;
65871;SDS011;52653;50.080;21.992;2024-02-21T05:43:14;16.30;;;8.00;;
65871;SDS011;52653;50.080;21.992;2024-02-21T05:45:46;15.70;;;8.80;;
65871;SDS011;52653;50.080;21.992;2024-02-21T05:48:19;17.20;;;9.30;;
65871;SDS011;52653;50.080;21.992;2024-02-21T05:50:52;18.50;;;10.90;;
65871;SDS011;52653;50.080;21.992;2024-02-21T05:53:24;18.10;;;10.50;;
65871;SDS011;52653;50.080;21.992;2024-02-21T05:55:56;17.40;;;10.00;;
65871;SDS011;52653;50.080;21.992;2024-02-21T05:58:31;16.80;;;8.90;;
65871;SDS011;52653;50.080;21.992;2024-02-21T06:01:03;17.30;;;10.20;;
65871;SDS011;52653;50.080;21.992;2024-02-21T06:03:36;22.80;;;13.10;;
65871;SDS011;52653;50.080;21.992;2024-02-21T06:06:08;18.30;;;10.90;;
65871;SDS011;52653;50.080;21.992;2024-02-21T06:08:40;15.80;;;10.20;;
65871;SDS011;52653;50.080;21.992;2024-02-21T06:11:13;16.20;;;9.50;;
65871;SDS011;52653;50.080;21.992;2024-02-21T06:13:45;17.10;;;10.20;;
65871;SDS011;52653;50.080;21.992;2024-02-21T06:16:18;15.30;;;8.80;;
65871;SDS011;52653;50.080;21.992;2024-02-21T06:18:50;16.00;;;9.20;;
65871;SDS011;52653;50.080;21.992;2024-02-21T06:21:22;17.10;;;8.80;;
65871;SDS011;52653;50.080;21.992;2024-02-21T06:23:59;15.60;;;9.40;;
65871;SDS011;52653;50.080;21.992;2024-02-21T06:26:31;15.20;;;9.40;;
65871;SDS011;52653;50.080;21.992;2024-02-21T06:29:03;17.10;;;9.10;;
65871;SDS011;52653;50.080;21.992;2024-02-21T06:31:36;14.50;;;8.40;;
65871;SDS011;52653;50.080;21.992;2024-02-21T06:34:08;15.70;;;8.30;;
65871;SDS011;52653;50.080;21.992;2024-02-21T06:36:40;14.40;;;8.20;;
65871;SDS011;52653;50.080;21.992;2024-02-21T06:39:13;20.60;;;9.10;;
65871;SDS011;52653;50.080;21.992;2024-02-21T06:41:45;14.90;;;7.70;;
65871;SDS011;52653;50.080;21.992;2024-02-21T06:44:20;14.20;;;8.20;;
65871;SDS011;52653;50.080;21.992;2024-02-21T06:46:53;14.90;;;8.60;;
65871;SDS011;52653;50.080;21.992;2024-02-21T06:49:25;14.00;;;8.30;;
65871;SDS011;52653;50.080;21.992;2024-02-21T06:51:58;16.30;;;8.80;;
65871;SDS011;52653;50.080;21.992;2024-02-21T06:54:30;17.50;;;9.50;;
65871;SDS011;52653;50.080;21.992;2024-02-21T06:57:02;17.20;;;9.80;;
65871;SDS011;52653;50.080;21.992;2024-02-21T06:59:35;16.80;;;9.50;;
65871;SDS011;52653;50.080;21.992;2024-02-21T07:02:07;16.50;;;9.50;;
65871;SDS011;52653;50.080;21.992;2024-02-21T07:04:40;14.80;;;9.00;;
65871;SDS011;52653;50.080;21.992;2024-02-21T07:07:13;16.40;;;9.70;;
65871;SDS011;52653;50.080;21.992;2024-02-21T07:09:45;16.60;;;10.20;;
65871;SDS011;52653;50.080;21.992;2024-02-21T07:12:18;16.50;;;9.90;;
65871;SDS011;52653;50.080;21.992;2024-02-21T07:14:53;17.20;;;9.70;;
65871;SDS011;52653;50.080;21.992;2024-02-21T07:17:25;16.20;;;9.80;;
65871;SDS011;52653;50.080;21.992;2024-02-21T07:19:57;18.90;;;9.90;;
65871;SDS011;52653;50.080;21.992;2024-02-21T07:22:30;18.00;;;9.60;;
65871;SDS011;52653;50.080;21.992;2024-02-21T07:25:03;18.20;;;9.60;;
65871;SDS011;52653;50.080;21.992;2024-02-21T07:27:36;16.30;;;10.10;;
65871;SDS011;52653;50.080;21.992;2024-02-21T07:30:09;18.80;;;10.10;;
65871;SDS011;52653;50.080;21.992;2024-02-21T07:32:45;19.00;;;10.40;;
65871;SDS011;52653;50.080;21.992;2024-02-21T07:35:23;18.40;;;10.60;;
65871;SDS011;52653;50.080;21.992;2024-02-21T07:37:55;21.90;;;10.60;;
65871;SDS011;52653;50.080;21.992;2024-02-21T07:40:27;22.60;;;10.60;;
65871;SDS011;52653;50.080;21.992;2024-02-21T07:42:59;18.70;;;10.20;;
65871;SDS011;52653;50.080;21.992;2024-02-21T07:45:34;20.40;;;11.00;;
65871;SDS011;52653;50.080;21.992;2024-02-21T07:48:08;23.50;;;10.60;;
65871;SDS011;52653;50.080;21.992;2024-02-21T07:50:41;20.10;;;10.20;;
65871;SDS011;52653;50.080;21.992;2024-02-21T07:53:14;21.60;;;11.60;;
65871;SDS011;52653;50.080;21.992;2024-02-21T07:55:47;21.30;;;11.20;;
65871;SDS011;52653;50.080;21.992;2024-02-21T07:58:19;18.90;;;10.60;;
65871;SDS011;52653;50.080;21.992;2024-02-21T08:00:51;19.00;;;10.70;;
65871;SDS011;52653;50.080;21.992;2024-02-21T08:03:26;19.50;;;10.10;;
65871;SDS011;52653;50.080;21.992;2024-02-21T08:05:59;18.00;;;9.40;;
65871;SDS011;52653;50.080;21.992;2024-02-21T08:08:31;17.60;;;8.90;;
65871;SDS011;52653;50.080;21.992;2024-02-21T08:11:04;16.20;;;9.20;;
65871;SDS011;52653;50.080;21.992;2024-02-21T08:13:37;19.80;;;9.50;;
65871;SDS011;52653;50.080;21.992;2024-02-21T08:16:09;17.10;;;8.70;;
65871;SDS011;52653;50.080;21.992;2024-02-21T08:18:43;18.10;;;8.20;;
65871;SDS011;52653;50.080;21.992;2024-02-21T08:21:15;18.10;;;8.30;;
65871;SDS011;52653;50.080;21.992;2024-02-21T08:23:47;15.10;;;7.80;;
65871;SDS011;52653;50.080;21.992;2024-02-21T08:26:21;14.90;;;7.70;;
65871;SDS011;52653;50.080;21.992;2024-02-21T08:28:53;15.40;;;7.40;;
65871;SDS011;52653;50.080;21.992;2024-02-21T08:31:28;16.10;;;7.20;;
65871;SDS011;52653;50.080;21.992;2024-02-21T08:34:01;14.50;;;7.40;;
65871;SDS011;52653;50.080;21.992;2024-02-21T08:36:34;14.50;;;7.10;;
65871;SDS011;52653;50.080;21.992;2024-02-21T08:39:06;14.20;;;7.50;;
65871;SDS011;52653;50.080;21.992;2024-02-21T08:41:40;18.40;;;7.70;;
65871;SDS011;52653;50.080;21.992;2024-02-21T08:44:28;17.70;;;7.90;;
65871;SDS011;52653;50.080;21.992;2024-02-21T08:47:21;18.50;;;7.20;;
65871;SDS011;52653;50.080;21.992;2024-02-21T08:49:53;16.20;;;7.60;;
65871;SDS011;52653;50.080;21.992;2024-02-21T08:52:36;14.90;;;7.70;;
65871;SDS011;52653;50.080;21.992;2024-02-21T08:55:22;15.40;;;7.30;;
65871;SDS011;52653;50.080;21.992;2024-02-21T08:58:06;14.20;;;6.60;;
65871;SDS011;52653;50.080;21.992;2024-02-21T09:00:38;15.70;;;6.40;;
65871;SDS011;52653;50.080;21.992;2024-02-21T09:03:11;36.80;;;24.00;;
65871;SDS011;52653;50.080;21.992;2024-02-21T09:05:53;18.70;;;13.00;;
65871;SDS011;52653;50.080;21.992;2024-02-21T09:08:25;13.50;;;7.30;;
65871;SDS011;52653;50.080;21.992;2024-02-21T09:11:19;14.50;;;6.70;;
65871;SDS011;52653;50.080;21.992;2024-02-21T09:13:51;13.20;;;5.90;;
65871;SDS011;52653;50.080;21.992;2024-02-21T09:16:33;15.60;;;6.10;;
65871;SDS011;52653;50.080;21.992;2024-02-21T09:19:18;14.80;;;6.20;;
65871;SDS011;52653;50.080;21.992;2024-02-21T09:21:51;13.80;;;6.40;;
65871;SDS011;52653;50.080;21.992;2024-02-21T09:24:23;11.90;;;5.10;;
65871;SDS011;52653;50.080;21.992;2024-02-21T09:26:55;12.30;;;5.30;;
65871;SDS011;52653;50.080;21.992;2024-02-21T09:29:31;13.20;;;4.50;;
65871;SDS011;52653;50.080;21.992;2024-02-21T09:32:06;12.60;;;5.20;;
65871;SDS011;52653;50.080;21.992;2024-02-21T09:34:39;11.00;;;5.50;;
65871;SDS011;52653;50.080;21.992;2024-02-21T09:37:14;11.50;;;4.80;;
65871;SDS011;52653;50.080;21.992;2024-02-21T09:39:57;10.40;;;4.90;;
65871;SDS011;52653;50.080;21.992;2024-02-21T09:42:49;10.80;;;5.40;;
65871;SDS011;52653;50.080;21.992;2024-02-21T09:45:32;13.30;;;5.30;;
65871;SDS011;52653;50.080;21.992;2024-02-21T09:48:12;12.50;;;4.10;;
65871;SDS011;52653;50.080;21.992;2024-02-21T09:50:52;9.90;;;4.60;;
65871;SDS011;52653;50.080;21.992;2024-02-21T09:53:26;9.50;;;4.20;;
65871;SDS011;52653;50.080;21.992;2024-02-21T09:56:01;9.40;;;3.90;;
65871;SDS011;52653;50.080;21.992;2024-02-21T09:58:34;11.30;;;4.00;;
65871;SDS011;52653;50.080;21.992;2024-02-21T10:01:07;11.00;;;4.10;;
65871;SDS011;52653;50.080;21.992;2024-02-21T10:03:53;9.00;;;4.30;;
65871;SDS011;52653;50.080;21.992;2024-02-21T10:06:27;8.80;;;3.70;;
65871;SDS011;52653;50.080;21.992;2024-02-21T10:09:00;9.10;;;3.70;;
65871;SDS011;52653;50.080;21.992;2024-02-21T10:11:32;9.10;;;4.30;;
65871;SDS011;52653;50.080;21.992;2024-02-21T10:14:06;9.20;;;3.80;;
65871;SDS011;52653;50.080;21.992;2024-02-21T10:16:38;9.00;;;4.20;;
65871;SDS011;52653;50.080;21.992;2024-02-21T10:19:17;10.20;;;4.40;;
65871;SDS011;52653;50.080;21.992;2024-02-21T10:22:02;10.00;;;4.30;;
65871;SDS011;52653;50.080;21.992;2024-02-21T10:24:37;10.30;;;4.50;;
65871;SDS011;52653;50.080;21.992;2024-02-21T10:27:10;9.40;;;4.50;;
65871;SDS011;52653;50.080;21.992;2024-02-21T10:29:43;11.00;;;4.40;;
65871;SDS011;52653;50.080;21.992;2024-02-21T10:32:21;11.10;;;4.30;;
65871;SDS011;52653;50.080;21.992;2024-02-21T10:35:01;10.60;;;4.60;;
65871;SDS011;52653;50.080;21.992;2024-02-21T10:37:35;11.10;;;4.70;;
65871;SDS011;52653;50.080;21.992;2024-02-21T10:40:08;9.10;;;4.30;;
65871;SDS011;52653;50.080;21.992;2024-02-21T10:42:41;9.20;;;4.60;;
65871;SDS011;52653;50.080;21.992;2024-02-21T10:45:14;10.70;;;6.60;;
65871;SDS011;52653;50.080;21.992;2024-02-21T10:47:48;8.50;;;3.90;;
65871;SDS011;52653;50.080;21.992;2024-02-21T10:50:26;8.60;;;4.10;;
65871;SDS011;52653;50.080;21.992;2024-02-21T10:53:04;7.10;;;3.50;;
65871;SDS011;52653;50.080;21.992;2024-02-21T10:55:56;8.40;;;3.30;;
65871;SDS011;52653;50.080;21.992;2024-02-21T10:58:41;9.40;;;3.10;;
65871;SDS011;52653;50.080;21.992;2024-02-21T11:01:14;8.70;;;3.60;;
65871;SDS011;52653;50.080;21.992;2024-02-21T11:03:48;10.10;;;3.70;;
65871;SDS011;52653;50.080;21.992;2024-02-21T11:06:23;8.20;;;3.00;;
65871;SDS011;52653;50.080;21.992;2024-02-21T11:09:01;7.80;;;3.40;;
65871;SDS011;52653;50.080;21.992;2024-02-21T11:11:35;8.90;;;3.30;;
65871;SDS011;52653;50.080;21.992;2024-02-21T11:14:10;8.20;;;3.70;;
65871;SDS011;52653;50.080;21.992;2024-02-21T11:16:48;10.40;;;4.20;;
65871;SDS011;52653;50.080;21.992;2024-02-21T11:19:21;8.90;;;4.20;;
65871;SDS011;52653;50.080;21.992;2024-02-21T11:21:54;7.90;;;3.30;;
65871;SDS011;52653;50.080;21.992;2024-02-21T11:24:32;9.90;;;3.30;;
65871;SDS011;52653;50.080;21.992;2024-02-21T11:27:11;8.80;;;3.90;;
65871;SDS011;52653;50.080;21.992;2024-02-21T11:29:44;8.40;;;3.90;;
65871;SDS011;52653;50.080;21.992;2024-02-21T11:32:18;9.70;;;3.90;;
65871;SDS011;52653;50.080;21.992;2024-02-21T11:34:55;8.90;;;3.70;;
65871;SDS011;52653;50.080;21.992;2024-02-21T11:37:32;8.30;;;3.60;;
65871;SDS011;52653;50.080;21.992;2024-02-21T11:40:07;6.90;;;3.30;;
65871;SDS011;52653;50.080;21.992;2024-02-21T11:42:41;9.50;;;3.50;;
65871;SDS011;52653;50.080;21.992;2024-02-21T11:45:15;7.90;;;3.60;;
65871;SDS011;52653;50.080;21.992;2024-02-21T11:47:49;8.80;;;3.80;;
65871;SDS011;52653;50.080;21.992;2024-02-21T11:50:22;9.90;;;5.30;;
65871;SDS011;52653;50.080;21.992;2024-02-21T11:52:55;8.60;;;4.60;;
65871;SDS011;52653;50.080;21.992;2024-02-21T11:55:27;9.80;;;4.00;;
65871;SDS011;52653;50.080;21.992;2024-02-21T11:58:00;9.50;;;3.90;;
65871;SDS011;52653;50.080;21.992;2024-02-21T12:00:32;9.90;;;4.10;;
65871;SDS011;52653;50.080;21.992;2024-02-21T12:03:05;9.30;;;3.40;;
65871;SDS011;52653;50.080;21.992;2024-02-21T12:05:38;10.20;;;4.40;;
65871;SDS011;52653;50.080;21.992;2024-02-21T12:08:13;8.40;;;3.80;;
65871;SDS011;52653;50.080;21.992;2024-02-21T12:10:45;8.30;;;4.30;;
65871;SDS011;52653;50.080;21.992;2024-02-21T12:13:23;10.60;;;5.30;;
65871;SDS011;52653;50.080;21.992;2024-02-21T12:15:56;19.10;;;11.00;;
65871;SDS011;52653;50.080;21.992;2024-02-21T12:18:28;11.70;;;5.10;;
65871;SDS011;52653;50.080;21.992;2024-02-21T12:21:00;11.00;;;6.50;;
65871;SDS011;52653;50.080;21.992;2024-02-21T12:23:32;11.70;;;5.60;;
65871;SDS011;52653;50.080;21.992;2024-02-21T12:26:05;9.20;;;3.90;;
65871;SDS011;52653;50.080;21.992;2024-02-21T12:28:37;8.80;;;4.00;;
65871;SDS011;52653;50.080;21.992;2024-02-21T12:31:10;9.60;;;4.10;;
65871;SDS011;52653;50.080;21.992;2024-02-21T12:33:42;8.70;;;3.80;;
65871;SDS011;52653;50.080;21.992;2024-02-21T12:36:15;7.70;;;4.30;;
65871;SDS011;52653;50.080;21.992;2024-02-21T12:38:47;8.90;;;4.20;;
65871;SDS011;52653;50.080;21.992;2024-02-21T12:41:19;8.90;;;3.70;;
65871;SDS011;52653;50.080;21.992;2024-02-21T12:43:51;7.30;;;3.50;;
65871;SDS011;52653;50.080;21.992;2024-02-21T12:46:23;8.10;;;4.20;;
65871;SDS011;52653;50.080;21.992;2024-02-21T12:48:56;7.70;;;3.70;;
65871;SDS011;52653;50.080;21.992;2024-02-21T12:51:28;7.60;;;3.30;;
65871;SDS011;52653;50.080;21.992;2024-02-21T12:54:01;9.70;;;4.00;;
65871;SDS011;52653;50.080;21.992;2024-02-21T12:56:33;8.30;;;4.30;;
65871;SDS011;52653;50.080;21.992;2024-02-21T12:59:05;8.00;;;4.50;;
65871;SDS011;52653;50.080;21.992;2024-02-21T13:01:38;7.30;;;3.50;;
65871;SDS011;52653;50.080;21.992;2024-02-21T13:04:11;9.00;;;3.90;;
65871;SDS011;52653;50.080;21.992;2024-02-21T13:06:43;7.60;;;3.60;;
65871;SDS011;52653;50.080;21.992;2024-02-21T13:09:16;7.30;;;3.50;;
65871;SDS011;52653;50.080;21.992;2024-02-21T13:11:49;8.10;;;3.40;;
65871;SDS011;52653;50.080;21.992;2024-02-21T13:14:22;6.70;;;3.20;;
65871;SDS011;52653;50.080;21.992;2024-02-21T13:16:54;7.60;;;3.50;;
65871;SDS011;52653;50.080;21.992;2024-02-21T13:19:26;7.90;;;2.70;;
65871;SDS011;52653;50.080;21.992;2024-02-21T13:21:59;6.50;;;2.50;;
65871;SDS011;52653;50.080;21.992;2024-02-21T13:24:32;6.00;;;2.60;;
65871;SDS011;52653;50.080;21.992;2024-02-21T13:27:04;6.20;;;2.70;;
65871;SDS011;52653;50.080;21.992;2024-02-21T13:29:36;7.30;;;2.80;;
65871;SDS011;52653;50.080;21.992;2024-02-21T13:32:09;8.10;;;3.10;;
65871;SDS011;52653;50.080;21.992;2024-02-21T13:34:42;7.40;;;3.10;;
65871;SDS011;52653;50.080;21.992;2024-02-21T13:37:14;8.20;;;3.50;;
65871;SDS011;52653;50.080;21.992;2024-02-21T13:39:47;6.70;;;2.80;;
65871;SDS011;52653;50.080;21.992;2024-02-21T13:42:19;7.80;;;2.90;;
65871;SDS011;52653;50.080;21.992;2024-02-21T13:44:53;7.40;;;3.50;;
65871;SDS011;52653;50.080;21.992;2024-02-21T13:47:25;8.00;;;2.90;;
65871;SDS011;52653;50.080;21.992;2024-02-21T13:49:58;6.60;;;3.10;;
65871;SDS011;52653;50.080;21.992;2024-02-21T13:52:31;7.50;;;2.90;;
65871;SDS011;52653;50.080;21.992;2024-02-21T13:55:03;6.80;;;3.10;;
65871;SDS011;52653;50.080;21.992;2024-02-21T13:57:37;8.10;;;3.20;;
65871;SDS011;52653;50.080;21.992;2024-02-21T14:00:10;7.50;;;3.50;;
65871;SDS011;52653;50.080;21.992;2024-02-21T14:02:44;7.30;;;3.50;;
65871;SDS011;52653;50.080;21.992;2024-02-21T14:05:16;14.00;;;5.70;;
65871;SDS011;52653;50.080;21.992;2024-02-21T14:07:48;13.10;;;5.20;;
65871;SDS011;52653;50.080;21.992;2024-02-21T14:10:24;10.50;;;4.90;;
65871;SDS011;52653;50.080;21.992;2024-02-21T14:12:56;10.60;;;4.40;;
65871;SDS011;52653;50.080;21.992;2024-02-21T14:15:29;9.60;;;4.30;;
65871;SDS011;52653;50.080;21.992;2024-02-21T14:18:02;7.70;;;3.80;;
65871;SDS011;52653;50.080;21.992;2024-02-21T14:20:38;9.60;;;4.10;;
65871;SDS011;52653;50.080;21.992;2024-02-21T14:23:13;10.50;;;4.80;;
65871;SDS011;52653;50.080;21.992;2024-02-21T14:25:45;11.90;;;5.40;;
65871;SDS011;52653;50.080;21.992;2024-02-21T14:28:18;10.50;;;5.10;;
65871;SDS011;52653;50.080;21.992;2024-02-21T14:30:50;9.10;;;4.40;;
65871;SDS011;52653;50.080;21.992;2024-02-21T14:33:26;11.00;;;4.80;;
65871;SDS011;52653;50.080;21.992;2024-02-21T14:36:00;11.50;;;7.80;;
65871;SDS011;52653;50.080;21.992;2024-02-21T14:38:32;11.20;;;5.90;;
65871;SDS011;52653;50.080;21.992;2024-02-21T14:41:05;11.00;;;5.10;;
65871;SDS011;52653;50.080;21.992;2024-02-21T14:43:37;14.70;;;6.80;;
65871;SDS011;52653;50.080;21.992;2024-02-21T14:46:10;16.20;;;7.80;;
65871;SDS011;52653;50.080;21.992;2024-02-21T14:48:42;23.00;;;9.10;;
65871;SDS011;52653;50.080;21.992;2024-02-21T14:51:15;27.40;;;10.30;;
65871;SDS011;52653;50.080;21.992;2024-02-21T14:53:47;24.30;;;9.30;;
65871;SDS011;52653;50.080;21.992;2024-02-21T14:56:19;19.90;;;6.90;;
65871;SDS011;52653;50.080;21.992;2024-02-21T14:58:52;27.40;;;10.20;;